Time;durP1;ratioP1;P1;durP2;ratioP2;P2;SDS_P1;SDS_P2;PMS_P1;PMS_P2;Temp;Humidity;BMP_temperature;BMP_pressure;BME280_temperature;BME280_humidity;BME280_pressure;Samples;Min_cycle;Max_cycle;Signal;HPM_P1;HPM_P2
2021/07/26 00:02:11;;;;;;;5.75;4.00;;;;;;;19.03;71.85;99634.09;5054720;28;20064;-70
2021/07/26 00:04:38;;;;;;;5.70;3.80;;;;;;;19.00;71.57;99634.88;5054370;28;20072;-70
2021/07/26 00:07:06;;;;;;;6.70;3.80;;;;;;;18.92;72.04;99636.03;5054351;28;20053;-70
2021/07/26 00:09:34;;;;;;;6.82;4.03;;;;;;;18.91;72.01;99634.41;5054212;28;20059;-70
2021/07/26 00:12:02;;;;;;;7.03;3.97;;;;;;;18.85;72.36;99621.84;5054094;28;20712;-70
2021/07/26 00:14:32;;;;;;;5.63;3.78;;;;;;;18.85;72.12;99624.69;5052603;28;20475;-70
2021/07/26 00:16:59;;;;;;;5.72;3.75;;;;;;;18.79;72.47;99617.78;5043961;28;20053;-70
2021/07/26 00:19:26;;;;;;;4.75;3.70;;;;;;;18.73;72.49;99617.31;5054488;28;20053;-70
2021/07/26 00:21:54;;;;;;;5.53;3.67;;;;;;;18.71;72.66;99619.72;5053870;28;20497;-70
2021/07/26 00:24:21;;;;;;;5.95;3.85;;;;;;;18.70;72.79;99617.28;5052157;28;20049;-70
2021/07/26 00:26:48;;;;;;;6.57;5.07;;;;;;;18.77;73.33;99618.16;5054108;28;20057;-70
2021/07/26 00:29:16;;;;;;;9.25;4.32;;;;;;;18.72;73.35;99629.78;5054416;28;20060;-70
2021/07/26 00:31:47;;;;;;;7.25;4.38;;;;;;;18.67;73.03;99628.16;5054113;28;20060;-70
2021/07/26 00:34:24;;;;;;;5.80;4.00;;;;;;;18.64;72.83;99625.28;5053948;28;20049;-70
2021/07/26 00:36:53;;;;;;;5.55;4.32;;;;;;;18.62;73.28;99622.84;5054323;28;20056;-70
2021/07/26 00:39:22;;;;;;;5.90;4.03;;;;;;;18.62;73.36;99627.69;5053415;28;20049;-70
2021/07/26 00:41:55;;;;;;;6.05;4.20;;;;;;;18.59;73.56;99634.91;5053922;28;20389;-70
2021/07/26 00:44:24;;;;;;;5.05;4.03;;;;;;;18.58;73.31;99626.84;5054157;28;20049;-70
2021/07/26 00:46:53;;;;;;;;;;;;;;;18.52;73.18;99622.75;5054200;28;20052;-70
2021/07/26 00:49:22;;;;;;;7.03;3.97;;;;;;;18.52;73.33;99623.59;5053734;28;19928;-70
2021/07/26 00:51:51;;;;;;;7.90;4.05;;;;;;;18.53;73.41;99628.00;5042948;28;20049;-70
2021/07/26 00:54:21;;;;;;;7.13;4.30;;;;;;;18.53;73.44;99625.19;5046487;28;20512;-70
2021/07/26 00:56:51;;;;;;;5.35;3.97;;;;;;;18.54;73.42;99609.91;5053353;28;20056;-70
2021/07/26 00:59:18;;;;;;;4.90;4.05;;;;;;;18.52;73.38;99606.66;5053827;28;20075;-70
2021/07/26 01:01:47;;;;;;;8.50;4.80;;;;;;;18.49;73.06;99606.63;5053683;28;20045;-70
2021/07/26 01:04:16;;;;;;;5.22;4.30;;;;;;;18.43;73.28;99609.00;5053209;28;20072;-70
2021/07/26 01:06:43;;;;;;;6.53;4.50;;;;;;;18.40;73.42;99607.75;5053477;28;20075;-70
2021/07/26 01:09:11;;;;;;;6.18;4.47;;;;;;;18.47;73.67;99607.00;5052096;28;20064;-70
2021/07/26 01:11:39;;;;;;;6.43;4.47;;;;;;;18.48;73.63;99610.63;5053379;28;20045;-70
2021/07/26 01:14:09;;;;;;;6.35;4.30;;;;;;;18.51;73.52;99623.97;5053295;28;20486;-70
2021/07/26 01:16:36;;;;;;;5.90;4.20;;;;;;;18.39;73.62;99625.06;5053367;28;20049;-70
2021/07/26 01:19:04;;;;;;;5.85;3.85;;;;;;;18.40;73.14;99621.84;5053149;28;20053;-70
2021/07/26 01:21:33;;;;;;;5.38;4.22;;;;;;;18.39;72.92;99625.06;5053265;28;20393;-70
2021/07/26 01:24:01;;;;;;;5.07;4.07;;;;;;;18.33;73.07;99627.44;5050862;28;20053;-70
2021/07/26 01:26:30;;;;;;;7.00;4.27;;;;;;;18.28;73.11;99624.97;5053044;28;20489;-70
2021/07/26 01:29:02;;;;;;;5.25;4.38;;;;;;;18.24;73.59;99630.56;5052487;28;20493;-70
2021/07/26 01:31:30;;;;;;;7.35;4.57;;;;;;;18.21;73.42;99634.16;5052905;28;20466;-70
2021/07/26 01:33:57;;;;;;;7.97;4.75;;;;;;;18.18;73.78;99625.66;5051923;28;20045;-70
2021/07/26 01:36:26;;;;;;;5.45;4.15;;;;;;;18.18;73.47;99626.47;5052558;28;20052;-70
2021/07/26 01:38:55;;;;;;;4.90;4.10;;;;;;;18.19;73.56;99632.94;5052077;28;20052;-70
2021/07/26 01:41:26;;;;;;;7.25;4.50;;;;;;;18.16;73.45;99628.06;5052816;28;20512;-70
2021/07/26 01:44:02;;;;;;;6.97;4.60;;;;;;;18.12;73.41;99628.03;5052743;28;20409;-70
2021/07/26 01:46:47;;;;;;;5.32;4.13;;;;;;;18.10;73.55;99623.97;5052947;28;20493;-70
2021/07/26 01:49:44;;;;;;;8.02;4.78;;;;;;;18.07;73.12;99634.00;5052815;28;20053;-70
2021/07/26 01:52:13;;;;;;;6.85;4.13;;;;;;;18.05;73.57;99625.94;5032231;28;20057;-70
2021/07/26 01:54:42;;;;;;;6.13;4.03;;;;;;;18.04;73.43;99631.97;5052321;28;20048;-70
2021/07/26 01:57:13;;;;;;;6.75;4.68;;;;;;;18.00;73.34;99625.47;5052599;28;20072;-70
2021/07/26 01:59:40;;;;;;;7.35;4.70;;;;;;;18.00;73.45;99631.91;5052554;28;20059;-70
2021/07/26 02:02:08;;;;;;;5.80;3.85;;;;;;;17.96;73.37;99631.06;5052309;28;20049;-70
2021/07/26 02:04:35;;;;;;;6.38;4.45;;;;;;;17.95;73.26;99623.78;5052786;28;20057;-70
2021/07/26 02:07:06;;;;;;;6.13;4.40;;;;;;;17.95;73.23;99623.00;5051694;28;20482;-70
2021/07/26 02:09:33;;;;;;;9.43;4.93;;;;;;;17.93;73.28;99614.94;5052518;28;20138;-70
2021/07/26 02:12:02;;;;;;;6.65;4.10;;;;;;;17.97;73.10;99621.41;5052188;28;20057;-70
2021/07/26 02:14:30;;;;;;;5.20;4.57;;;;;;;17.94;73.26;99627.03;5035676;28;20049;-70
2021/07/26 02:16:57;;;;;;;6.03;4.20;;;;;;;17.89;73.75;99627.34;5049444;28;20513;-70
2021/07/26 02:19:25;;;;;;;6.78;4.50;;;;;;;17.87;73.59;99638.19;5052115;28;20497;-70
2021/07/26 02:21:55;;;;;;;6.55;4.15;;;;;;;17.84;73.79;99634.94;5052397;28;20057;-70
2021/07/26 02:24:22;;;;;;;6.30;4.70;;;;;;;17.88;73.90;99637.00;5051973;28;20049;-70
2021/07/26 02:26:50;;;;;;;5.78;4.22;;;;;;;17.88;74.37;99639.81;5052521;28;20056;-70
2021/07/26 02:29:20;;;;;;;6.18;4.18;;;;;;;17.87;73.87;99636.22;5052409;28;20477;-70
2021/07/26 02:31:47;;;;;;;7.30;4.55;;;;;;;17.86;73.89;99637.38;5050525;28;20500;-70
2021/07/26 02:34:15;;;;;;;6.05;4.10;;;;;;;17.85;73.78;99647.03;5047473;28;20375;-70
2021/07/26 02:36:44;;;;;;;6.18;4.50;;;;;;;17.80;73.65;99645.31;5012669;28;20061;-70
2021/07/26 02:39:12;;;;;;;6.20;4.43;;;;;;;17.82;73.82;99654.25;5011902;28;20054;-70
2021/07/26 02:41:42;;;;;;;6.57;4.22;;;;;;;17.81;74.07;99649.78;5012740;28;20054;-70
2021/07/26 02:44:12;;;;;;;6.13;4.15;;;;;;;17.80;73.92;99652.97;5012538;28;20058;-69
2021/07/26 02:46:43;;;;;;;6.80;4.57;;;;;;;17.81;73.93;99658.22;5015964;28;20487;-70
2021/07/26 02:49:10;;;;;;;8.45;4.50;;;;;;;17.80;73.93;99658.59;5016242;28;20057;-70
2021/07/26 02:51:38;;;;;;;6.60;4.63;;;;;;;17.79;73.96;99666.25;5016165;28;20061;-70
2021/07/26 02:54:05;;;;;;;6.65;4.38;;;;;;;17.78;74.05;99669.44;5016147;28;20054;-69
2021/07/26 02:56:32;;;;;;;5.97;4.47;;;;;;;17.74;74.18;99666.56;5016169;28;20057;-70
2021/07/26 02:59:00;;;;;;;13.23;4.70;;;;;;;17.74;74.17;99674.22;5015717;28;20073;-70
2021/07/26 03:01:27;;;;;;;5.85;4.30;;;;;;;17.74;74.41;99669.41;5015525;28;20063;-69
2021/07/26 03:03:56;;;;;;;5.30;4.45;;;;;;;17.75;74.34;99682.31;5015603;28;20054;-69
2021/07/26 03:06:23;;;;;;;6.47;4.60;;;;;;;17.69;74.45;99681.00;5016055;28;20399;-69
2021/07/26 03:08:51;;;;;;;7.47;4.15;;;;;;;17.71;74.40;99680.63;5015901;28;20488;-68
2021/07/26 03:11:18;;;;;;;8.38;4.28;;;;;;;17.74;73.98;99683.47;5015859;28;20054;-68
2021/07/26 03:13:48;;;;;;;5.68;4.50;;;;;;;17.73;73.94;99687.50;5015281;28;20050;-68
2021/07/26 03:16:16;;;;;;;6.10;4.32;;;;;;;17.72;73.91;99694.31;5015370;28;20403;-69
2021/07/26 03:18:44;;;;;;;7.45;4.28;;;;;;;17.73;74.11;99690.31;5016000;28;20053;-70
2021/07/26 03:21:19;;;;;;;5.40;4.28;;;;;;;17.71;74.08;99687.06;5015364;28;20053;-69
2021/07/26 03:23:46;;;;;;;5.35;4.63;;;;;;;17.73;74.24;99692.34;5014752;28;20065;-69
2021/07/26 03:26:16;;;;;;;7.60;4.25;;;;;;;17.73;74.01;99687.50;5015464;28;20069;-69
2021/07/26 03:28:43;;;;;;;5.57;4.15;;;;;;;17.74;74.19;99696.75;5015574;28;20061;-69
2021/07/26 03:31:11;;;;;;;5.65;3.67;;;;;;;17.78;73.97;99703.25;5015619;28;20395;-69
2021/07/26 03:33:39;;;;;;;4.65;3.55;;;;;;;17.75;73.68;99699.19;5015131;28;20057;-69
2021/07/26 03:36:07;;;;;;;5.93;3.95;;;;;;;17.77;73.61;99702.44;5045287;28;20079;-69
2021/07/26 03:38:35;;;;;;;7.05;4.50;;;;;;;17.77;73.54;99701.66;5054095;28;20049;-69
2021/07/26 03:41:06;;;;;;;7.57;4.83;;;;;;;17.75;73.77;99702.03;5054904;28;20048;-69
2021/07/26 03:43:33;;;;;;;8.13;4.03;;;;;;;17.74;74.01;99703.19;5055109;28;20819;-69
2021/07/26 03:46:01;;;;;;;8.05;4.20;;;;;;;17.74;73.83;99711.66;5054601;28;20049;-69
2021/07/26 03:48:28;;;;;;;5.07;4.22;;;;;;;17.75;73.64;99699.19;5054992;28;20055;-69
2021/07/26 03:50:57;;;;;;;9.60;4.53;;;;;;;17.76;73.71;99711.28;5054712;28;20053;-69
2021/07/26 03:53:26;;;;;;;7.18;4.25;;;;;;;17.81;74.06;99710.94;5053415;28;20049;-69
2021/07/26 03:55:55;;;;;;;6.65;3.90;;;;;;;17.82;73.96;99704.13;5054546;28;20057;-69
2021/07/26 03:58:23;;;;;;;5.07;3.40;;;;;;;17.87;73.35;99701.00;5053741;28;20053;-69
2021/07/26 04:00:53;;;;;;;5.47;3.55;;;;;;;17.96;72.51;99695.06;5054619;28;20053;-69
2021/07/26 04:03:25;;;;;;;5.80;3.45;;;;;;;18.01;72.20;99691.91;5053621;28;20059;-69
2021/07/26 04:06:01;;;;;;;6.43;4.10;;;;;;;17.99;72.22;99692.28;5054428;28;20064;-69
2021/07/26 04:08:32;;;;;;;4.68;3.42;;;;;;;18.01;72.92;99698.34;5053221;28;20064;-69
2021/07/26 04:11:06;;;;;;;4.90;4.07;;;;;;;18.06;72.75;99694.41;5054333;28;20516;-69
2021/07/26 04:13:35;;;;;;;4.13;3.72;;;;;;;18.16;72.72;99695.69;5054553;28;20045;-69
2021/07/26 04:16:02;;;;;;;;;;;;;;;18.21;72.48;99690.53;5054585;28;20056;-69
2021/07/26 04:18:32;;;;;;;6.55;4.28;;;;;;;18.30;72.02;99693.03;5054564;28;19942;-69
2021/07/26 04:21:08;;;;;;;6.18;3.30;;;;;;;18.38;71.35;99693.94;5053742;28;20429;-69
2021/07/26 04:23:35;;;;;;;5.18;3.90;;;;;;;18.40;71.49;99689.53;5053152;28;20064;-69
2021/07/26 04:26:06;;;;;;;5.43;3.55;;;;;;;18.46;71.48;99693.63;5053697;28;20049;-69
2021/07/26 04:28:33;;;;;;;5.97;3.80;;;;;;;18.42;71.60;99695.59;5054173;28;20053;-69
2021/07/26 04:31:00;;;;;;;6.30;3.85;;;;;;;18.52;71.07;99696.91;5053865;28;20049;-69
2021/07/26 04:33:28;;;;;;;6.53;4.60;;;;;;;18.56;71.10;99700.59;5052774;28;20048;-69
2021/07/26 04:35:55;;;;;;;6.90;4.88;;;;;;;18.62;71.52;99696.19;5033692;28;20506;-69
2021/07/26 04:38:24;;;;;;;8.35;4.32;;;;;;;18.63;71.36;99699.84;5036840;28;20044;-69
2021/07/26 04:40:56;;;;;;;7.25;4.22;;;;;;;18.67;70.97;99700.69;5053483;28;20045;-69
2021/07/26 04:43:27;;;;;;;5.95;3.60;;;;;;;18.69;71.01;99705.91;5053834;28;20059;-69
2021/07/26 04:45:58;;;;;;;7.35;3.70;;;;;;;18.64;71.01;99705.06;5053694;28;20056;-69
2021/07/26 04:48:26;;;;;;;8.27;3.67;;;;;;;18.69;70.74;99705.91;5053676;28;20071;-69
2021/07/26 04:50:53;;;;;;;6.07;3.67;;;;;;;18.65;70.95;99709.53;5053686;28;20045;-69
2021/07/26 04:53:21;;;;;;;6.68;4.35;;;;;;;18.73;70.82;99712.41;5052864;28;20064;-69
2021/07/26 04:55:50;;;;;;;7.22;3.53;;;;;;;18.83;70.70;99715.34;5052542;28;20045;-69
2021/07/26 04:58:17;;;;;;;;;;;;;;;18.86;70.15;99713.78;5053177;28;20071;-69
2021/07/26 05:00:49;;;;;;;4.10;3.70;;;;;;;18.93;70.15;99721.50;5052937;28;19920;-69
2021/07/26 05:03:18;;;;;;;6.20;3.78;;;;;;;19.02;69.69;99710.69;5052891;28;20075;-69
2021/07/26 05:05:45;;;;;;;;;;;;;;;19.05;69.29;99713.53;5053386;28;20052;-69
2021/07/26 05:08:15;;;;;;;5.60;3.67;;;;;;;19.09;69.39;99716.41;5052953;28;19927;-69
2021/07/26 05:10:45;;;;;;;;;;;;;;;19.17;69.12;99715.25;5049792;28;20056;-69
2021/07/26 05:13:12;;;;;;;5.07;3.88;;;;;;;19.32;68.85;99716.16;5050002;28;19921;-69
2021/07/26 05:15:45;;;;;;;4.75;3.67;;;;;;;19.43;68.33;99710.59;5051656;28;20057;-69
2021/07/26 05:18:16;;;;;;;6.90;3.80;;;;;;;19.50;68.55;99715.47;5040429;28;20053;-69
2021/07/26 05:20:44;;;;;;;8.25;4.10;;;;;;;19.53;68.67;99720.31;5051961;28;20375;-69
2021/07/26 05:23:12;;;;;;;4.97;3.75;;;;;;;19.63;68.53;99713.94;5051414;28;20057;-69
2021/07/26 05:25:44;;;;;;;5.68;3.90;;;;;;;19.75;68.54;99715.66;5040273;28;20474;-69
2021/07/26 05:28:12;;;;;;;5.97;3.60;;;;;;;19.65;69.24;99717.16;5052536;28;20061;-69
2021/07/26 05:30:42;;;;;;;5.47;4.03;;;;;;;19.83;68.52;99720.94;5052606;28;20056;-69
2021/07/26 05:33:11;;;;;;;6.35;3.75;;;;;;;19.98;67.38;99706.88;5052345;28;20053;-69
2021/07/26 05:35:41;;;;;;;6.53;3.92;;;;;;;20.10;66.08;99709.34;5052503;28;20505;-69
2021/07/26 05:38:10;;;;;;;5.30;4.22;;;;;;;20.21;65.46;99712.22;5046110;28;20059;-69
2021/07/26 05:40:37;;;;;;;8.30;4.03;;;;;;;20.27;65.64;99719.13;5036471;28;20056;-69
2021/07/26 05:43:05;;;;;;;5.68;3.90;;;;;;;20.31;65.46;99713.47;5035879;28;20397;-69
2021/07/26 05:45:33;;;;;;;8.48;4.00;;;;;;;20.43;65.37;99718.75;5052712;28;20064;-69
2021/07/26 05:48:00;;;;;;;6.65;3.95;;;;;;;20.55;64.91;99711.91;5052301;28;20053;-69
2021/07/26 05:50:27;;;;;;;5.53;4.00;;;;;;;20.63;64.83;99717.22;5052868;28;20071;-69
2021/07/26 05:52:56;;;;;;;6.45;4.00;;;;;;;20.79;64.50;99716.00;5051870;28;20049;-69
2021/07/26 05:55:23;;;;;;;5.78;4.18;;;;;;;20.89;64.52;99709.53;5052327;28;20072;-69
2021/07/26 05:57:51;;;;;;;6.07;3.90;;;;;;;21.03;63.90;99709.56;5052617;28;20045;-69
2021/07/26 06:00:34;;;;;;;7.68;4.40;;;;;;;21.13;63.67;99705.13;5052525;28;20466;-69
2021/07/26 06:03:02;;;;;;;5.45;3.95;;;;;;;21.34;63.61;99700.66;5038959;28;20108;-69
2021/07/26 06:05:29;;;;;;;5.10;3.60;;;;;;;21.49;63.06;99708.72;5052100;28;20057;-69
2021/07/26 06:07:58;;;;;;;5.75;4.00;;;;;;;21.58;63.20;99716.00;5052130;28;20052;-69
2021/07/26 06:10:25;;;;;;;7.65;3.80;;;;;;;21.66;63.33;99707.06;5046645;28;20049;-57
2021/07/26 06:12:53;;;;;;;5.18;3.55;;;;;;;21.76;64.22;99705.44;5032102;28;20049;-63
2021/07/26 06:15:21;;;;;;;6.40;3.97;;;;;;;21.72;64.11;99703.84;5032727;28;20061;-63
2021/07/26 06:17:49;;;;;;;8.68;4.30;;;;;;;21.84;64.63;99709.06;5044074;28;20049;-63
2021/07/26 06:20:16;;;;;;;5.95;4.03;;;;;;;21.87;64.92;99706.19;5051457;28;20412;-63
2021/07/26 06:22:44;;;;;;;5.65;4.07;;;;;;;21.93;65.17;99703.75;5055547;28;20059;-63
2021/07/26 06:25:13;;;;;;;6.90;4.38;;;;;;;21.86;64.95;99701.75;5055368;28;20049;-63
2021/07/26 06:27:42;;;;;;;8.15;4.20;;;;;;;21.89;64.27;99692.44;5054112;28;20048;-62
2021/07/26 06:30:10;;;;;;;4.78;3.35;;;;;;;21.68;65.87;99707.47;5055619;28;20049;-63
2021/07/26 06:32:38;;;;;;;6.03;3.43;;;;;;;21.94;65.16;99707.41;5056366;28;20049;-63
2021/07/26 06:35:07;;;;;;;5.43;3.88;;;;;;;21.92;65.61;99702.13;5052600;28;20059;-63
2021/07/26 06:37:34;;;;;;;7.85;4.40;;;;;;;22.05;65.76;99705.34;5046851;28;20067;-63
2021/07/26 06:40:02;;;;;;;7.07;4.00;;;;;;;21.69;66.35;99716.78;5054228;28;20055;-63
2021/07/26 06:42:31;;;;;;;4.38;2.80;;;;;;;21.84;63.97;99701.38;5043638;28;20059;-63
2021/07/26 06:44:58;;;;;;;5.18;3.17;;;;;;;22.13;63.40;99703.25;5054726;28;20057;-63
2021/07/26 06:47:26;;;;;;;4.47;3.00;;;;;;;21.80;63.61;99700.56;5054659;28;20056;-63
2021/07/26 06:49:53;;;;;;;4.07;2.97;;;;;;;21.68;63.30;99703.84;5055743;28;20060;-63
2021/07/26 06:52:23;;;;;;;7.78;3.30;;;;;;;21.94;62.60;99710.22;5055870;28;20061;-69
2021/07/26 06:54:50;;;;;;;4.75;3.00;;;;;;;22.38;60.52;99706.00;5055656;28;20061;-69
2021/07/26 06:57:18;;;;;;;4.25;2.90;;;;;;;22.62;59.91;99699.38;5055557;28;20060;-69
2021/07/26 06:59:46;;;;;;;4.70;2.83;;;;;;;22.65;59.96;99698.53;5056133;28;20478;-69
2021/07/26 07:02:14;;;;;;;4.00;3.03;;;;;;;22.98;59.22;99701.16;5053618;28;20049;-69
2021/07/26 07:04:52;;;;;;;4.65;2.60;;;;;;;23.09;58.01;99699.84;5055152;28;20057;-69
2021/07/26 07:07:19;;;;;;;4.25;2.55;;;;;;;23.24;57.82;99699.72;5055681;28;20057;-69
2021/07/26 07:09:47;;;;;;;5.47;3.03;;;;;;;23.34;56.83;99698.81;5056151;28;20477;-69
2021/07/26 07:12:16;;;;;;;3.65;2.38;;;;;;;23.28;56.32;99694.81;5054570;28;20470;-67
2021/07/26 07:14:46;;;;;;;3.88;2.13;;;;;;;23.55;54.75;99694.97;5047634;28;20052;-68
2021/07/26 07:17:13;;;;;;;4.55;2.40;;;;;;;23.62;53.88;99699.75;5047115;28;20056;-68
2021/07/26 07:19:43;;;;;;;3.22;2.20;;;;;;;23.67;53.63;99693.63;5048643;28;20482;-68
2021/07/26 07:22:11;;;;;;;2.85;2.17;;;;;;;23.43;53.69;99701.97;5051012;28;20052;-68
2021/07/26 07:24:39;;;;;;;3.83;2.08;;;;;;;23.60;53.28;99691.66;5050956;28;20057;-68
2021/07/26 07:27:07;;;;;;;3.08;2.33;;;;;;;23.94;53.09;99701.44;5052260;28;20052;-68
2021/07/26 07:29:34;;;;;;;3.75;2.20;;;;;;;24.09;51.09;99697.22;5052447;28;20053;-68
2021/07/26 07:32:04;;;;;;;2.78;2.05;;;;;;;24.18;51.69;99702.38;5052386;28;20489;-68
2021/07/26 07:34:32;;;;;;;3.40;2.30;;;;;;;24.26;51.94;99704.69;5045998;28;20506;-68
2021/07/26 07:37:01;;;;;;;4.05;2.25;;;;;;;24.23;50.60;99699.88;5052862;28;20410;-68
2021/07/26 07:39:29;;;;;;;4.13;2.25;;;;;;;24.45;50.41;99702.41;5051471;28;20061;-67
2021/07/26 07:41:56;;;;;;;2.75;2.10;;;;;;;24.69;50.15;99706.16;5046624;28;20057;-67
2021/07/26 07:44:29;;;;;;;3.83;2.25;;;;;;;24.97;49.03;99704.09;5049051;28;20057;-68
2021/07/26 07:46:57;;;;;;;3.05;2.05;;;;;;;25.70;47.96;99697.53;5052132;28;20053;-67
2021/07/26 07:49:28;;;;;;;2.97;2.28;;;;;;;26.30;46.57;99703.25;5051799;28;20049;-67
2021/07/26 07:51:58;;;;;;;4.35;2.40;;;;;;;27.19;44.67;99704.47;5052504;28;20049;-68
2021/07/26 07:54:26;;;;;;;4.35;2.20;;;;;;;27.92;42.03;99705.78;5046286;28;20048;-67
2021/07/26 07:56:53;;;;;;;3.08;2.10;;;;;;;27.89;40.97;99712.44;5052149;28;20059;-67
2021/07/26 07:59:21;;;;;;;3.22;2.10;;;;;;;28.26;40.17;99712.19;5051990;28;20478;-67
2021/07/26 08:01:49;;;;;;;2.63;1.95;;;;;;;28.73;39.13;99709.53;5051761;28;20409;-67
2021/07/26 08:04:16;;;;;;;2.92;2.00;;;;;;;29.41;38.14;99703.63;5051843;28;20379;-67
2021/07/26 08:06:45;;;;;;;3.08;2.33;;;;;;;29.82;37.51;99696.03;5052533;28;20049;-67
2021/07/26 08:09:12;;;;;;;2.63;2.05;;;;;;;30.53;35.85;99689.66;5052016;28;20064;-67
2021/07/26 08:11:40;;;;;;;3.45;2.55;;;;;;;30.90;35.60;99703.41;5052071;28;20061;-68
2021/07/26 08:14:08;;;;;;;2.30;2.08;;;;;;;30.54;34.80;99704.84;5049871;28;20056;-68
2021/07/26 08:16:37;;;;;;;5.15;2.35;;;;;;;31.03;34.17;99694.66;5051869;28;20052;-68
2021/07/26 08:19:07;;;;;;;5.30;2.50;;;;;;;32.09;32.75;99702.00;5051152;28;20064;-68
2021/07/26 08:21:38;;;;;;;2.38;2.08;;;;;;;32.32;31.43;99709.97;5051745;28;20072;-68
2021/07/26 08:24:07;;;;;;;2.33;1.80;;;;;;;33.66;30.43;99704.22;5047632;28;20063;-68
2021/07/26 08:26:35;;;;;;;3.55;1.92;;;;;;;33.89;29.15;99705.47;5051630;28;20061;-68
2021/07/26 08:29:05;;;;;;;2.97;1.90;;;;;;;33.06;30.31;99708.91;5046376;28;20057;-68
2021/07/26 08:31:33;;;;;;;2.60;1.98;;;;;;;32.99;30.24;99717.91;5051982;28;20048;-68
2021/07/26 08:34:01;;;;;;;3.40;2.00;;;;;;;34.68;28.46;99701.19;5046396;28;20049;-68
2021/07/26 08:36:28;;;;;;;2.53;2.10;;;;;;;35.39;26.72;99702.00;5051636;28;20069;-68
2021/07/26 08:38:56;;;;;;;3.47;1.90;;;;;;;33.87;28.67;99717.56;5051893;28;20055;-68
2021/07/26 08:41:25;;;;;;;2.25;1.80;;;;;;;33.32;29.83;99715.03;5051462;28;20080;-68
2021/07/26 08:43:56;;;;;;;2.78;2.17;;;;;;;33.57;28.90;99731.06;5051327;28;20387;-68
2021/07/26 08:46:27;;;;;;;2.33;1.67;;;;;;;31.55;32.09;99739.72;5051609;28;20061;-68
2021/07/26 08:48:55;;;;;;;2.58;1.90;;;;;;;30.35;33.41;99732.66;5045397;28;20421;-68
2021/07/26 08:51:24;;;;;;;2.93;2.00;;;;;;;30.85;33.18;99732.75;5051716;28;20434;-68
2021/07/26 08:53:52;;;;;;;2.97;1.98;;;;;;;32.50;30.85;99746.56;5050083;28;20041;-68
2021/07/26 08:56:21;;;;;;;3.20;2.03;;;;;;;33.71;29.52;99730.34;5051175;28;20057;-68
2021/07/26 08:58:50;;;;;;;3.10;2.17;;;;;;;34.37;27.71;99729.28;5045895;28;20402;-68
2021/07/26 09:01:18;;;;;;;2.40;2.00;;;;;;;34.55;27.84;99727.50;5051974;28;20057;-68
2021/07/26 09:03:57;;;;;;;2.35;2.05;;;;;;;35.24;26.35;99725.22;5044728;28;20485;-68
2021/07/26 09:06:27;;;;;;;2.85;2.50;;;;;;;36.50;25.03;99740.75;5051244;28;20053;-68
2021/07/26 09:08:56;;;;;;;3.50;2.15;;;;;;;37.24;24.32;99721.84;5051512;28;20056;-68
2021/07/26 09:11:26;;;;;;;2.85;2.35;;;;;;;37.12;23.42;99732.56;5051369;28;20061;-68
2021/07/26 09:13:55;;;;;;;2.30;2.10;;;;;;;37.79;22.85;99726.34;5050182;28;20048;-68
2021/07/26 09:16:25;;;;;;;3.03;2.60;;;;;;;38.89;21.38;99724.69;5051102;28;20060;-68
2021/07/26 09:19:02;;;;;;;2.30;2.10;;;;;;;40.02;20.47;99727.31;5045341;28;20057;-68
2021/07/26 09:21:49;;;;;;;2.60;1.90;;;;;;;41.33;18.53;99729.50;5050858;28;20048;-68
2021/07/26 09:24:25;;;;;;;2.75;2.35;;;;;;;39.95;21.06;99735.31;5049945;28;20045;-68
2021/07/26 09:26:53;;;;;;;3.92;1.77;;;;;;;38.05;22.95;99742.84;5048200;28;20075;-68
2021/07/26 09:29:29;;;;;;;3.08;2.35;;;;;;;38.48;22.75;99757.22;5050102;28;20059;-68
2021/07/26 09:31:58;;;;;;;4.28;2.08;;;;;;;37.81;23.15;99758.59;5051456;28;20053;-68
2021/07/26 09:34:26;;;;;;;2.70;1.90;;;;;;;36.28;24.81;99753.69;5043182;28;20049;-67
2021/07/26 09:36:53;;;;;;;3.50;1.93;;;;;;;34.84;27.31;99757.72;5047762;28;20443;-68
2021/07/26 09:39:28;;;;;;;3.07;2.27;;;;;;;33.38;29.01;99770.03;5051200;28;20417;-67
2021/07/26 09:41:58;;;;;;;4.78;2.20;;;;;;;32.31;31.16;99765.19;5051036;28;20475;-67
2021/07/26 09:44:29;;;;;;;3.88;2.30;;;;;;;34.33;28.52;99760.50;5050025;28;20429;-67
2021/07/26 09:47:19;;;;;;;4.20;2.80;;;;;;;36.34;24.89;99756.66;5049563;28;20061;-68
2021/07/26 09:49:50;;;;;;;2.92;2.50;;;;;;;37.94;23.02;99767.63;5051500;28;20477;-67
2021/07/26 09:52:21;;;;;;;2.58;2.30;;;;;;;37.38;24.50;99755.72;5048943;28;20056;-67
2021/07/26 09:54:54;;;;;;;3.08;1.92;;;;;;;38.94;22.05;99750.91;5043220;28;20486;-67
2021/07/26 09:57:26;;;;;;;2.80;2.30;;;;;;;37.16;23.64;99767.97;5048456;28;20493;-67
2021/07/26 10:00:02;;;;;;;4.40;2.10;;;;;;;36.50;24.82;99758.94;5049642;28;20057;-67
2021/07/26 10:02:33;;;;;;;2.58;2.05;;;;;;;35.85;25.17;99761.34;5049507;28;20056;-68
2021/07/26 10:05:04;;;;;;;3.80;2.58;;;;;;;34.88;26.48;99764.09;5051093;28;20469;-67
2021/07/26 10:07:33;;;;;;;2.55;2.30;;;;;;;35.87;25.07;99765.34;5045403;28;20064;-67
2021/07/26 10:10:03;;;;;;;;;;;;;;;36.14;24.50;99789.38;5050498;28;20053;-67
2021/07/26 10:12:31;;;;;;;3.13;2.67;;;;;;;36.83;23.96;99768.47;5044618;28;20285;-67
2021/07/26 10:15:00;;;;;;;3.67;2.47;;;;;;;37.50;23.38;99768.19;5050750;28;20055;-67
2021/07/26 10:17:28;;;;;;;3.20;2.58;;;;;;;38.74;22.04;99762.81;5049415;28;20486;-67
2021/07/26 10:19:55;;;;;;;3.75;2.40;;;;;;;39.30;20.92;99762.78;5042527;28;20068;-67
2021/07/26 10:22:27;;;;;;;3.03;2.00;;;;;;;37.68;22.97;99769.91;5046452;28;20057;-67
2021/07/26 10:25:01;;;;;;;3.47;2.40;;;;;;;36.20;24.92;99764.16;5049563;28;20053;-67
2021/07/26 10:27:31;;;;;;;2.55;2.10;;;;;;;36.76;24.55;99772.66;5043994;28;20124;-67
2021/07/26 10:30:01;;;;;;;2.80;2.05;;;;;;;36.22;25.01;99766.53;5050607;28;20052;-67
2021/07/26 10:32:33;;;;;;;4.60;2.15;;;;;;;37.01;23.78;99755.69;5044292;28;20057;-67
2021/07/26 10:35:02;;;;;;;2.97;2.13;;;;;;;36.58;24.01;99762.16;5045478;28;20061;-67
2021/07/26 10:37:48;;;;;;;4.32;2.50;;;;;;;36.49;24.49;99750.75;5039651;28;20060;-67
2021/07/26 10:40:20;;;;;;;3.03;2.53;;;;;;;36.43;25.65;99753.56;5033666;28;20049;-68
2021/07/26 10:42:48;;;;;;;2.67;2.08;;;;;;;36.03;26.39;99748.66;5035720;28;20060;-67
2021/07/26 10:46:07;;;;;;;3.47;2.00;;;;;;;35.41;26.38;99742.06;5045898;28;20041;-67
2021/07/26 10:48:38;;;;;;;2.40;2.10;;;;;;;35.51;26.66;99749.28;5035422;28;20053;-68
2021/07/26 10:51:38;;;;;;;3.03;2.08;;;;;;;33.84;28.50;99755.28;5042210;28;20049;-67
2021/07/26 10:54:08;;;;;;;3.10;1.92;;;;;;;34.12;27.99;99752.97;4974326;28;20046;-67
2021/07/26 10:57:07;;;;;;;2.67;2.40;;;;;;;34.12;27.98;99748.03;5028537;28;20056;-67
2021/07/26 11:00:12;;;;;;;3.10;2.30;;;;;;;35.36;25.70;99772.50;5035846;28;20493;-67
2021/07/26 11:02:41;;;;;;;3.72;2.28;;;;;;;34.82;26.68;99757.41;5037139;28;20064;-67
2021/07/26 11:05:35;;;;;;;3.17;2.20;;;;;;;36.48;24.06;99743.34;5039115;28;20053;-67
2021/07/26 11:08:25;;;;;;;3.75;2.20;;;;;;;36.50;23.79;99747.34;5044871;28;20056;-67
2021/07/26 11:10:54;;;;;;;2.60;2.15;;;;;;;37.04;23.49;99745.94;5039249;28;20056;-67
2021/07/26 11:13:23;;;;;;;2.80;2.08;;;;;;;37.10;23.35;99747.59;5035926;28;20056;-67
2021/07/26 11:15:51;;;;;;;2.70;2.20;;;;;;;36.68;23.34;99746.19;5038852;28;20052;-67
2021/07/26 11:18:24;;;;;;;;;;;;;;;35.88;24.20;99740.84;5040996;28;20045;-67
2021/07/26 11:21:10;;;;;;;2.55;2.10;;;;;;;36.74;23.49;99740.44;5045122;28;19924;-67
2021/07/26 11:23:52;;;;;;;2.90;1.90;;;;;;;36.58;23.46;99736.84;5053970;28;20132;-67
2021/07/26 11:26:22;;;;;;;3.80;2.28;;;;;;;35.38;24.68;99740.94;5047341;28;20053;-67
2021/07/26 11:28:52;;;;;;;2.25;2.00;;;;;;;33.79;27.53;99759.66;5045922;28;20056;-68
2021/07/26 11:31:24;;;;;;;5.20;2.42;;;;;;;34.56;26.30;99749.31;5051193;28;20048;-67
2021/07/26 11:33:52;;;;;;;3.47;2.10;;;;;;;35.05;25.50;99744.09;5054074;28;20053;-67
2021/07/26 11:36:22;;;;;;;2.30;2.00;;;;;;;35.49;24.87;99744.00;5053883;28;20060;-67
2021/07/26 11:39:07;;;;;;;3.35;2.00;;;;;;;35.44;24.96;99733.13;5053681;28;20060;-67
2021/07/26 11:41:35;;;;;;;2.28;1.80;;;;;;;34.49;27.17;99735.28;5050589;28;20057;-67
2021/07/26 11:44:03;;;;;;;2.90;1.80;;;;;;;34.30;27.21;99726.78;5052783;28;20049;-67
2021/07/26 11:46:31;;;;;;;3.97;1.90;;;;;;;33.36;28.30;99722.22;5053593;28;20053;-67
2021/07/26 11:48:59;;;;;;;3.15;1.95;;;;;;;32.51;29.99;99738.75;5054104;28;20068;-67